TimeEDT,TemperatureF,Dew PointF,Humidity,Sea Level PressureIn,VisibilityMPH,Wind Direction,Wind SpeedMPH,Gust SpeedMPH,PrecipitationIn,Events,Conditions,WindDirDegrees,DateUTC
12:53 AM,44.1,39.0,82,30.15,-9999.0,NW,4.6,-,N/A,,Clear,320,2013-09-14 04:53:00
1:53 AM,46.0,39.0,76,30.14,-9999.0,Calm,Calm,-,N/A,,Clear,0,2013-09-14 05:53:00
2:53 AM,44.1,39.0,82,30.15,-9999.0,NW,3.5,-,N/A,,Clear,310,2013-09-14 06:53:00
3:53 AM,43.0,37.9,82,30.15,-9999.0,WNW,3.5,-,N/A,,Clear,290,2013-09-14 07:53:00
4:53 AM,39.9,35.1,83,30.16,-9999.0,Calm,Calm,-,N/A,,Clear,0,2013-09-14 08:53:00
5:53 AM,41.0,36.0,82,30.17,-9999.0,NW,3.5,-,N/A,,Clear,310,2013-09-14 09:53:00
6:53 AM,42.1,37.0,82,30.17,-9999.0,Calm,Calm,-,N/A,,Clear,0,2013-09-14 10:53:00
7:53 AM,43.0,39.0,86,30.19,10.0,Calm,Calm,-,N/A,,Clear,0,2013-09-14 11:53:00
8:53 AM,51.1,43.0,74,30.20,10.0,Calm,Calm,-,N/A,,Clear,0,2013-09-14 12:53:00
9:53 AM,55.9,43.0,62,30.21,10.0,Calm,Calm,-,N/A,,Clear,0,2013-09-14 13:53:00
10:53 AM,60.1,42.1,51,30.20,10.0,SSW,3.5,-,N/A,,Clear,210,2013-09-14 14:53:00
11:53 AM,63.0,41.0,45,30.20,10.0,SW,8.1,-,N/A,,Clear,220,2013-09-14 15:53:00
12:53 PM,64.9,39.0,39,30.19,10.0,SSW,5.8,-,N/A,,Clear,210,2013-09-14 16:53:00
1:53 PM,66.9,35.1,31,30.17,10.0,Variable,4.6,-,N/A,,Clear,0,2013-09-14 17:53:00
2:53 PM,69.1,36.0,30,30.14,10.0,SW,6.9,-,N/A,,Clear,230,2013-09-14 18:53:00
3:53 PM,70.0,37.0,30,30.12,10.0,South,5.8,-,N/A,,Clear,170,2013-09-14 19:53:00
4:53 PM,70.0,37.0,30,30.12,10.0,South,4.6,-,N/A,,Clear,190,2013-09-14 20:53:00
5:53 PM,69.1,37.0,31,30.11,10.0,SSW,5.8,-,N/A,,Clear,200,2013-09-14 21:53:00
6:53 PM,66.9,39.0,36,30.11,10.0,SW,8.1,-,N/A,,Clear,220,2013-09-14 22:53:00
7:53 PM,61.0,43.0,52,30.11,10.0,SSW,6.9,-,N/A,,Clear,200,2013-09-14 23:53:00
8:53 PM,57.0,45.0,64,30.12,10.0,Calm,Calm,-,N/A,,Clear,0,2013-09-15 00:53:00
9:53 PM,54.0,45.0,72,30.13,10.0,Calm,Calm,-,N/A,,Clear,0,2013-09-15 01:53:00
10:53 PM,55.9,45.0,67,30.11,10.0,South,4.6,-,N/A,,Clear,190,2013-09-15 02:53:00
11:53 PM,54.0,48.0,80,30.11,10.0,South,6.9,-,N/A,,Clear,190,2013-09-15 03:53:00